sensor_id;sensor_type;location;lat;lon;timestamp;P1;durP1;ratioP1;P2;durP2;ratioP2
42514;SDS011;28144;49.920;18.730;2023-04-08T00:00:58;82.03;;;40.37;;
42514;SDS011;28144;49.920;18.730;2023-04-08T00:03:24;66.03;;;33.20;;
42514;SDS011;28144;49.920;18.730;2023-04-08T00:05:50;63.50;;;33.07;;
42514;SDS011;28144;49.920;18.730;2023-04-08T00:08:16;63.37;;;29.40;;
42514;SDS011;28144;49.920;18.730;2023-04-08T00:10:42;68.67;;;33.33;;
42514;SDS011;28144;49.920;18.730;2023-04-08T00:13:08;68.67;;;34.37;;
42514;SDS011;28144;49.920;18.730;2023-04-08T00:15:33;72.63;;;34.90;;
42514;SDS011;28144;49.920;18.730;2023-04-08T00:18:00;80.13;;;35.45;;
42514;SDS011;28144;49.920;18.730;2023-04-08T00:20:26;67.63;;;34.23;;
42514;SDS011;28144;49.920;18.730;2023-04-08T00:22:52;72.03;;;32.70;;
42514;SDS011;28144;49.920;18.730;2023-04-08T00:25:17;75.37;;;34.67;;
42514;SDS011;28144;49.920;18.730;2023-04-08T00:27:43;57.73;;;27.90;;
42514;SDS011;28144;49.920;18.730;2023-04-08T00:30:09;57.87;;;28.67;;
42514;SDS011;28144;49.920;18.730;2023-04-08T00:32:36;63.65;;;31.25;;
42514;SDS011;28144;49.920;18.730;2023-04-08T00:35:02;63.22;;;31.75;;
42514;SDS011;28144;49.920;18.730;2023-04-08T00:37:29;61.92;;;32.03;;
42514;SDS011;28144;49.920;18.730;2023-04-08T00:39:55;70.65;;;35.25;;
42514;SDS011;28144;49.920;18.730;2023-04-08T00:42:21;60.73;;;29.73;;
42514;SDS011;28144;49.920;18.730;2023-04-08T00:44:47;66.60;;;33.07;;
42514;SDS011;28144;49.920;18.730;2023-04-08T00:47:13;87.17;;;42.37;;
42514;SDS011;28144;49.920;18.730;2023-04-08T00:49:40;72.90;;;38.57;;
42514;SDS011;28144;49.920;18.730;2023-04-08T00:52:06;71.80;;;35.15;;
42514;SDS011;28144;49.920;18.730;2023-04-08T00:54:32;84.40;;;41.53;;
42514;SDS011;28144;49.920;18.730;2023-04-08T00:56:58;59.13;;;28.70;;
42514;SDS011;28144;49.920;18.730;2023-04-08T00:59:27;58.70;;;30.40;;
42514;SDS011;28144;49.920;18.730;2023-04-08T01:07:33;42.10;;;22.47;;
42514;SDS011;28144;49.920;18.730;2023-04-08T01:10:11;48.47;;;25.53;;
42514;SDS011;28144;49.920;18.730;2023-04-08T01:12:42;45.60;;;24.97;;
42514;SDS011;28144;49.920;18.730;2023-04-08T01:15:20;23.23;;;12.97;;
42514;SDS011;28144;49.920;18.730;2023-04-08T01:17:47;31.98;;;16.25;;
42514;SDS011;28144;49.920;18.730;2023-04-08T01:20:15;37.30;;;19.20;;
42514;SDS011;28144;49.920;18.730;2023-04-08T01:25:35;20.40;;;10.03;;
42514;SDS011;28144;49.920;18.730;2023-04-08T01:28:04;35.90;;;21.23;;
42514;SDS011;28144;49.920;18.730;2023-04-08T01:30:32;40.47;;;23.60;;
42514;SDS011;28144;49.920;18.730;2023-04-08T01:32:59;28.60;;;15.55;;
42514;SDS011;28144;49.920;18.730;2023-04-08T01:35:26;34.13;;;19.40;;
42514;SDS011;28144;49.920;18.730;2023-04-08T01:37:53;20.00;;;11.50;;
42514;SDS011;28144;49.920;18.730;2023-04-08T01:40:19;28.67;;;13.52;;
42514;SDS011;28144;49.920;18.730;2023-04-08T01:42:48;43.30;;;24.13;;
42514;SDS011;28144;49.920;18.730;2023-04-08T01:45:15;47.13;;;23.97;;
42514;SDS011;28144;49.920;18.730;2023-04-08T01:47:42;40.33;;;22.15;;
42514;SDS011;28144;49.920;18.730;2023-04-08T01:50:11;45.70;;;24.57;;
42514;SDS011;28144;49.920;18.730;2023-04-08T01:52:38;52.75;;;28.92;;
42514;SDS011;28144;49.920;18.730;2023-04-08T01:55:04;41.00;;;22.23;;
42514;SDS011;28144;49.920;18.730;2023-04-08T01:57:31;40.38;;;18.45;;
42514;SDS011;28144;49.920;18.730;2023-04-08T02:02:24;51.47;;;28.53;;
42514;SDS011;28144;49.920;18.730;2023-04-08T02:04:52;57.90;;;30.10;;
42514;SDS011;28144;49.920;18.730;2023-04-08T02:07:18;52.73;;;28.47;;
42514;SDS011;28144;49.920;18.730;2023-04-08T02:09:44;52.60;;;28.77;;
42514;SDS011;28144;49.920;18.730;2023-04-08T02:12:10;47.60;;;27.53;;
42514;SDS011;28144;49.920;18.730;2023-04-08T02:14:36;42.73;;;23.03;;
42514;SDS011;28144;49.920;18.730;2023-04-08T02:17:09;39.20;;;22.10;;
42514;SDS011;28144;49.920;18.730;2023-04-08T02:22:21;56.65;;;31.65;;
42514;SDS011;28144;49.920;18.730;2023-04-08T02:25:02;61.13;;;33.87;;
42514;SDS011;28144;49.920;18.730;2023-04-08T02:29:54;59.50;;;34.20;;
42514;SDS011;28144;49.920;18.730;2023-04-08T02:32:21;51.13;;;30.47;;
42514;SDS011;28144;49.920;18.730;2023-04-08T02:34:48;64.65;;;37.28;;
42514;SDS011;28144;49.920;18.730;2023-04-08T02:37:14;41.63;;;19.42;;
42514;SDS011;28144;49.920;18.730;2023-04-08T02:39:40;53.17;;;28.63;;
42514;SDS011;28144;49.920;18.730;2023-04-08T02:42:06;44.80;;;23.50;;
42514;SDS011;28144;49.920;18.730;2023-04-08T02:44:31;57.80;;;28.20;;
42514;SDS011;28144;49.920;18.730;2023-04-08T02:46:57;59.87;;;31.57;;
42514;SDS011;28144;49.920;18.730;2023-04-08T02:49:23;25.83;;;13.63;;
42514;SDS011;28144;49.920;18.730;2023-04-08T02:51:49;46.27;;;26.93;;
42514;SDS011;28144;49.920;18.730;2023-04-08T02:54:14;36.07;;;20.60;;
42514;SDS011;28144;49.920;18.730;2023-04-08T02:56:40;60.77;;;34.37;;
42514;SDS011;28144;49.920;18.730;2023-04-08T02:59:06;24.17;;;11.37;;
42514;SDS011;28144;49.920;18.730;2023-04-08T03:01:32;55.05;;;30.65;;
42514;SDS011;28144;49.920;18.730;2023-04-08T03:03:58;43.83;;;25.53;;
42514;SDS011;28144;49.920;18.730;2023-04-08T03:06:23;35.23;;;19.47;;
42514;SDS011;28144;49.920;18.730;2023-04-08T03:08:49;49.30;;;27.70;;
42514;SDS011;28144;49.920;18.730;2023-04-08T03:11:15;48.63;;;26.90;;
42514;SDS011;28144;49.920;18.730;2023-04-08T03:13:41;39.50;;;23.07;;
42514;SDS011;28144;49.920;18.730;2023-04-08T03:16:07;50.80;;;31.50;;
42514;SDS011;28144;49.920;18.730;2023-04-08T03:18:32;45.93;;;23.17;;
42514;SDS011;28144;49.920;18.730;2023-04-08T03:20:58;61.20;;;34.70;;
42514;SDS011;28144;49.920;18.730;2023-04-08T03:23:25;41.33;;;21.08;;
42514;SDS011;28144;49.920;18.730;2023-04-08T03:25:51;41.90;;;21.43;;
42514;SDS011;28144;49.920;18.730;2023-04-08T03:28:16;41.43;;;23.77;;
42514;SDS011;28144;49.920;18.730;2023-04-08T03:30:42;28.07;;;14.10;;
42514;SDS011;28144;49.920;18.730;2023-04-08T03:33:08;44.57;;;23.27;;
42514;SDS011;28144;49.920;18.730;2023-04-08T03:35:34;49.10;;;27.07;;
42514;SDS011;28144;49.920;18.730;2023-04-08T03:37:59;37.17;;;19.50;;
42514;SDS011;28144;49.920;18.730;2023-04-08T03:40:25;60.60;;;31.33;;
42514;SDS011;28144;49.920;18.730;2023-04-08T03:42:51;42.00;;;20.70;;
42514;SDS011;28144;49.920;18.730;2023-04-08T03:45:17;57.00;;;28.83;;
42514;SDS011;28144;49.920;18.730;2023-04-08T03:47:43;55.60;;;29.97;;
42514;SDS011;28144;49.920;18.730;2023-04-08T03:50:08;68.90;;;35.43;;
42514;SDS011;28144;49.920;18.730;2023-04-08T03:52:34;67.17;;;37.30;;
42514;SDS011;28144;49.920;18.730;2023-04-08T03:55:00;51.50;;;23.45;;
42514;SDS011;28144;49.920;18.730;2023-04-08T03:57:26;54.93;;;29.87;;
42514;SDS011;28144;49.920;18.730;2023-04-08T03:59:52;62.70;;;33.27;;
42514;SDS011;28144;49.920;18.730;2023-04-08T04:02:18;66.70;;;37.10;;
42514;SDS011;28144;49.920;18.730;2023-04-08T04:04:43;52.20;;;24.40;;
42514;SDS011;28144;49.920;18.730;2023-04-08T04:07:09;41.40;;;20.77;;
42514;SDS011;28144;49.920;18.730;2023-04-08T04:09:35;64.10;;;33.67;;
42514;SDS011;28144;49.920;18.730;2023-04-08T04:12:01;60.73;;;31.13;;
42514;SDS011;28144;49.920;18.730;2023-04-08T04:14:26;53.40;;;26.83;;
42514;SDS011;28144;49.920;18.730;2023-04-08T04:16:52;60.57;;;33.60;;
42514;SDS011;28144;49.920;18.730;2023-04-08T04:19:19;42.08;;;21.63;;
42514;SDS011;28144;49.920;18.730;2023-04-08T04:21:44;59.87;;;30.63;;
42514;SDS011;28144;49.920;18.730;2023-04-08T04:24:10;51.77;;;28.90;;
42514;SDS011;28144;49.920;18.730;2023-04-08T04:26:39;57.88;;;33.58;;
42514;SDS011;28144;49.920;18.730;2023-04-08T04:29:05;51.37;;;27.77;;
42514;SDS011;28144;49.920;18.730;2023-04-08T04:31:31;51.63;;;24.67;;
42514;SDS011;28144;49.920;18.730;2023-04-08T04:33:56;54.93;;;27.73;;
42514;SDS011;28144;49.920;18.730;2023-04-08T04:36:22;60.13;;;34.77;;
42514;SDS011;28144;49.920;18.730;2023-04-08T04:38:48;59.53;;;34.13;;
42514;SDS011;28144;49.920;18.730;2023-04-08T04:41:14;55.10;;;30.52;;
42514;SDS011;28144;49.920;18.730;2023-04-08T04:43:40;34.53;;;17.63;;
42514;SDS011;28144;49.920;18.730;2023-04-08T04:46:06;55.47;;;28.97;;
42514;SDS011;28144;49.920;18.730;2023-04-08T04:48:33;53.57;;;28.30;;
42514;SDS011;28144;49.920;18.730;2023-04-08T04:50:59;59.00;;;32.50;;
42514;SDS011;28144;49.920;18.730;2023-04-08T04:53:28;24.43;;;13.20;;
42514;SDS011;28144;49.920;18.730;2023-04-08T04:55:54;55.10;;;30.48;;
42514;SDS011;28144;49.920;18.730;2023-04-08T04:58:20;52.30;;;29.75;;
42514;SDS011;28144;49.920;18.730;2023-04-08T05:00:46;37.47;;;21.37;;
42514;SDS011;28144;49.920;18.730;2023-04-08T05:03:12;52.97;;;28.40;;
42514;SDS011;28144;49.920;18.730;2023-04-08T05:05:38;43.93;;;24.47;;
42514;SDS011;28144;49.920;18.730;2023-04-08T05:08:04;49.13;;;23.90;;
42514;SDS011;28144;49.920;18.730;2023-04-08T05:10:31;43.23;;;23.47;;
42514;SDS011;28144;49.920;18.730;2023-04-08T05:12:57;47.33;;;22.83;;
42514;SDS011;28144;49.920;18.730;2023-04-08T05:15:22;33.90;;;16.97;;
42514;SDS011;28144;49.920;18.730;2023-04-08T05:17:48;38.07;;;21.10;;
42514;SDS011;28144;49.920;18.730;2023-04-08T05:20:14;30.77;;;15.03;;
42514;SDS011;28144;49.920;18.730;2023-04-08T05:22:40;46.80;;;24.50;;
42514;SDS011;28144;49.920;18.730;2023-04-08T05:25:08;42.93;;;22.17;;
42514;SDS011;28144;49.920;18.730;2023-04-08T05:27:35;30.27;;;14.57;;
42514;SDS011;28144;49.920;18.730;2023-04-08T05:30:00;29.97;;;14.43;;
42514;SDS011;28144;49.920;18.730;2023-04-08T05:32:26;26.10;;;12.77;;
42514;SDS011;28144;49.920;18.730;2023-04-08T05:34:53;34.60;;;17.23;;
42514;SDS011;28144;49.920;18.730;2023-04-08T05:37:19;52.07;;;28.50;;
42514;SDS011;28144;49.920;18.730;2023-04-08T05:39:45;34.23;;;17.93;;
42514;SDS011;28144;49.920;18.730;2023-04-08T05:42:11;51.97;;;29.20;;
42514;SDS011;28144;49.920;18.730;2023-04-08T05:44:38;31.83;;;15.80;;
42514;SDS011;28144;49.920;18.730;2023-04-08T05:47:05;42.70;;;22.23;;
42514;SDS011;28144;49.920;18.730;2023-04-08T05:49:32;55.80;;;32.37;;
42514;SDS011;28144;49.920;18.730;2023-04-08T05:51:58;51.63;;;26.85;;
42514;SDS011;28144;49.920;18.730;2023-04-08T05:54:24;45.43;;;22.90;;
42514;SDS011;28144;49.920;18.730;2023-04-08T05:56:50;22.83;;;13.07;;
42514;SDS011;28144;49.920;18.730;2023-04-08T05:59:15;27.33;;;13.37;;
42514;SDS011;28144;49.920;18.730;2023-04-08T06:01:41;46.63;;;26.47;;
42514;SDS011;28144;49.920;18.730;2023-04-08T06:04:07;42.40;;;21.93;;
42514;SDS011;28144;49.920;18.730;2023-04-08T06:06:32;35.23;;;19.57;;
42514;SDS011;28144;49.920;18.730;2023-04-08T06:08:58;49.27;;;26.30;;
42514;SDS011;28144;49.920;18.730;2023-04-08T06:11:24;45.70;;;23.97;;
42514;SDS011;28144;49.920;18.730;2023-04-08T06:13:50;44.27;;;24.37;;
42514;SDS011;28144;49.920;18.730;2023-04-08T06:16:16;52.20;;;26.17;;
42514;SDS011;28144;49.920;18.730;2023-04-08T06:18:42;47.43;;;26.60;;
42514;SDS011;28144;49.920;18.730;2023-04-08T06:21:07;32.47;;;15.57;;
42514;SDS011;28144;49.920;18.730;2023-04-08T06:23:35;39.83;;;23.97;;
42514;SDS011;28144;49.920;18.730;2023-04-08T06:26:00;45.30;;;27.17;;
42514;SDS011;28144;49.920;18.730;2023-04-08T06:28:28;46.40;;;24.63;;
42514;SDS011;28144;49.920;18.730;2023-04-08T06:30:55;30.07;;;13.10;;
42514;SDS011;28144;49.920;18.730;2023-04-08T06:33:21;35.90;;;18.48;;
42514;SDS011;28144;49.920;18.730;2023-04-08T06:35:47;52.20;;;29.77;;
42514;SDS011;28144;49.920;18.730;2023-04-08T06:38:12;52.63;;;27.17;;
42514;SDS011;28144;49.920;18.730;2023-04-08T06:40:38;35.70;;;19.00;;
42514;SDS011;28144;49.920;18.730;2023-04-08T06:43:04;35.97;;;20.27;;
42514;SDS011;28144;49.920;18.730;2023-04-08T06:45:33;34.87;;;19.87;;
42514;SDS011;28144;49.920;18.730;2023-04-08T06:47:59;34.67;;;17.55;;
42514;SDS011;28144;49.920;18.730;2023-04-08T06:50:26;20.00;;;9.68;;
42514;SDS011;28144;49.920;18.730;2023-04-08T06:52:52;33.33;;;16.10;;
42514;SDS011;28144;49.920;18.730;2023-04-08T06:55:17;28.70;;;16.33;;
42514;SDS011;28144;49.920;18.730;2023-04-08T06:57:43;29.40;;;15.03;;
42514;SDS011;28144;49.920;18.730;2023-04-08T07:00:09;42.07;;;23.57;;
42514;SDS011;28144;49.920;18.730;2023-04-08T07:02:35;48.20;;;29.00;;
42514;SDS011;28144;49.920;18.730;2023-04-08T07:05:01;26.60;;;13.03;;
42514;SDS011;28144;49.920;18.730;2023-04-08T07:07:27;38.60;;;20.87;;
42514;SDS011;28144;49.920;18.730;2023-04-08T07:09:52;44.83;;;24.70;;
42514;SDS011;28144;49.920;18.730;2023-04-08T07:12:18;46.47;;;25.30;;
42514;SDS011;28144;49.920;18.730;2023-04-08T07:14:44;39.60;;;22.03;;
42514;SDS011;28144;49.920;18.730;2023-04-08T07:17:09;38.73;;;20.57;;
42514;SDS011;28144;49.920;18.730;2023-04-08T07:19:35;44.50;;;20.93;;
42514;SDS011;28144;49.920;18.730;2023-04-08T07:22:02;30.40;;;16.98;;
42514;SDS011;28144;49.920;18.730;2023-04-08T07:24:27;19.77;;;9.87;;
42514;SDS011;28144;49.920;18.730;2023-04-08T07:26:53;28.83;;;16.73;;
42514;SDS011;28144;49.920;18.730;2023-04-08T07:29:21;23.20;;;11.50;;
42514;SDS011;28144;49.920;18.730;2023-04-08T07:31:46;29.73;;;13.63;;
42514;SDS011;28144;49.920;18.730;2023-04-08T07:34:12;37.97;;;17.33;;
42514;SDS011;28144;49.920;18.730;2023-04-08T07:36:38;25.57;;;15.37;;
42514;SDS011;28144;49.920;18.730;2023-04-08T07:39:04;25.42;;;14.80;;
42514;SDS011;28144;49.920;18.730;2023-04-08T07:41:31;31.60;;;17.95;;
42514;SDS011;28144;49.920;18.730;2023-04-08T07:43:56;39.90;;;22.20;;
42514;SDS011;28144;49.920;18.730;2023-04-08T07:46:22;29.10;;;17.37;;
42514;SDS011;28144;49.920;18.730;2023-04-08T07:48:48;48.23;;;25.27;;
42514;SDS011;28144;49.920;18.730;2023-04-08T07:51:14;39.57;;;22.33;;
42514;SDS011;28144;49.920;18.730;2023-04-08T07:53:39;45.50;;;27.23;;
42514;SDS011;28144;49.920;18.730;2023-04-08T07:56:14;26.07;;;15.13;;
42514;SDS011;28144;49.920;18.730;2023-04-08T08:01:21;26.45;;;14.38;;
42514;SDS011;28144;49.920;18.730;2023-04-08T08:03:48;35.93;;;19.93;;
42514;SDS011;28144;49.920;18.730;2023-04-08T08:06:14;24.85;;;15.77;;
42514;SDS011;28144;49.920;18.730;2023-04-08T08:12:38;27.17;;;15.03;;
42514;SDS011;28144;49.920;18.730;2023-04-08T08:15:04;27.47;;;15.27;;
42514;SDS011;28144;49.920;18.730;2023-04-08T08:17:30;17.20;;;10.07;;
42514;SDS011;28144;49.920;18.730;2023-04-08T08:19:58;24.57;;;15.40;;
42514;SDS011;28144;49.920;18.730;2023-04-08T08:22:25;22.50;;;13.27;;
42514;SDS011;28144;49.920;18.730;2023-04-08T08:24:57;18.65;;;11.32;;
42514;SDS011;28144;49.920;18.730;2023-04-08T08:27:23;35.07;;;19.90;;
42514;SDS011;28144;49.920;18.730;2023-04-08T08:29:50;32.58;;;20.30;;
42514;SDS011;28144;49.920;18.730;2023-04-08T08:32:15;21.33;;;13.17;;
42514;SDS011;28144;49.920;18.730;2023-04-08T08:34:41;25.10;;;13.73;;
42514;SDS011;28144;49.920;18.730;2023-04-08T08:37:07;20.50;;;13.30;;
42514;SDS011;28144;49.920;18.730;2023-04-08T08:39:32;18.87;;;8.50;;
42514;SDS011;28144;49.920;18.730;2023-04-08T08:41:58;13.17;;;7.87;;
42514;SDS011;28144;49.920;18.730;2023-04-08T08:44:25;42.78;;;21.38;;
42514;SDS011;28144;49.920;18.730;2023-04-08T08:46:51;95.68;;;39.17;;
42514;SDS011;28144;49.920;18.730;2023-04-08T08:49:17;56.80;;;28.80;;
42514;SDS011;28144;49.920;18.730;2023-04-08T08:51:46;68.83;;;30.20;;
42514;SDS011;28144;49.920;18.730;2023-04-08T08:54:13;32.17;;;15.17;;
42514;SDS011;28144;49.920;18.730;2023-04-08T08:56:39;50.20;;;26.53;;
42514;SDS011;28144;49.920;18.730;2023-04-08T08:59:08;31.00;;;17.87;;
42514;SDS011;28144;49.920;18.730;2023-04-08T09:05:14;31.03;;;19.47;;
42514;SDS011;28144;49.920;18.730;2023-04-08T09:07:40;32.50;;;20.40;;
42514;SDS011;28144;49.920;18.730;2023-04-08T09:10:06;23.57;;;14.40;;
42514;SDS011;28144;49.920;18.730;2023-04-08T09:12:32;31.08;;;20.23;;
42514;SDS011;28144;49.920;18.730;2023-04-08T09:15:04;27.80;;;16.10;;
42514;SDS011;28144;49.920;18.730;2023-04-08T09:17:34;29.37;;;16.80;;
42514;SDS011;28144;49.920;18.730;2023-04-08T09:20:11;20.77;;;14.20;;
42514;SDS011;28144;49.920;18.730;2023-04-08T09:25:24;26.33;;;16.70;;
42514;SDS011;28144;49.920;18.730;2023-04-08T09:27:54;29.67;;;17.83;;
42514;SDS011;28144;49.920;18.730;2023-04-08T09:30:20;13.47;;;8.17;;
42514;SDS011;28144;49.920;18.730;2023-04-08T09:32:50;23.37;;;13.63;;
42514;SDS011;28144;49.920;18.730;2023-04-08T09:35:21;23.23;;;15.37;;
42514;SDS011;28144;49.920;18.730;2023-04-08T09:37:48;19.85;;;11.25;;
42514;SDS011;28144;49.920;18.730;2023-04-08T09:40:14;7.50;;;4.90;;
42514;SDS011;28144;49.920;18.730;2023-04-08T09:42:43;15.77;;;9.95;;
42514;SDS011;28144;49.920;18.730;2023-04-08T09:45:10;11.37;;;7.90;;
42514;SDS011;28144;49.920;18.730;2023-04-08T09:47:41;15.60;;;9.38;;
42514;SDS011;28144;49.920;18.730;2023-04-08T09:50:13;11.23;;;6.25;;
42514;SDS011;28144;49.920;18.730;2023-04-08T09:52:44;14.03;;;8.40;;
42514;SDS011;28144;49.920;18.730;2023-04-08T09:55:12;11.60;;;6.10;;
42514;SDS011;28144;49.920;18.730;2023-04-08T09:57:45;14.77;;;7.88;;
42514;SDS011;28144;49.920;18.730;2023-04-08T10:00:17;14.20;;;10.70;;
42514;SDS011;28144;49.920;18.730;2023-04-08T10:05:12;9.73;;;5.43;;
42514;SDS011;28144;49.920;18.730;2023-04-08T10:07:39;13.17;;;6.23;;
42514;SDS011;28144;49.920;18.730;2023-04-08T10:10:06;11.32;;;6.50;;
42514;SDS011;28144;49.920;18.730;2023-04-08T10:12:33;20.53;;;13.27;;
42514;SDS011;28144;49.920;18.730;2023-04-08T10:17:50;12.47;;;8.20;;
42514;SDS011;28144;49.920;18.730;2023-04-08T10:23:01;11.60;;;6.63;;
42514;SDS011;28144;49.920;18.730;2023-04-08T10:25:27;8.90;;;5.40;;
42514;SDS011;28144;49.920;18.730;2023-04-08T10:27:55;10.03;;;6.17;;
42514;SDS011;28144;49.920;18.730;2023-04-08T10:32:56;15.30;;;10.03;;
42514;SDS011;28144;49.920;18.730;2023-04-08T10:35:29;9.63;;;6.20;;
42514;SDS011;28144;49.920;18.730;2023-04-08T10:37:59;14.63;;;6.90;;
42514;SDS011;28144;49.920;18.730;2023-04-08T10:40:25;17.23;;;8.20;;
42514;SDS011;28144;49.920;18.730;2023-04-08T10:42:58;14.73;;;4.85;;
42514;SDS011;28144;49.920;18.730;2023-04-08T10:45:24;12.97;;;6.63;;
42514;SDS011;28144;49.920;18.730;2023-04-08T10:47:50;16.57;;;10.07;;
42514;SDS011;28144;49.920;18.730;2023-04-08T10:50:16;9.80;;;5.50;;
42514;SDS011;28144;49.920;18.730;2023-04-08T10:52:50;12.47;;;7.50;;
42514;SDS011;28144;49.920;18.730;2023-04-08T10:55:25;12.57;;;6.27;;
42514;SDS011;28144;49.920;18.730;2023-04-08T10:57:54;5.70;;;3.53;;
42514;SDS011;28144;49.920;18.730;2023-04-08T11:00:36;13.33;;;7.47;;
42514;SDS011;28144;49.920;18.730;2023-04-08T11:03:03;10.23;;;5.47;;
42514;SDS011;28144;49.920;18.730;2023-04-08T11:05:31;21.00;;;11.00;;
42514;SDS011;28144;49.920;18.730;2023-04-08T11:10:35;9.35;;;4.43;;
42514;SDS011;28144;49.920;18.730;2023-04-08T11:13:05;10.10;;;6.97;;
42514;SDS011;28144;49.920;18.730;2023-04-08T11:15:36;6.73;;;4.70;;
42514;SDS011;28144;49.920;18.730;2023-04-08T11:18:03;8.55;;;6.25;;
42514;SDS011;28144;49.920;18.730;2023-04-08T11:20:30;10.10;;;7.50;;
42514;SDS011;28144;49.920;18.730;2023-04-08T11:22:59;10.10;;;7.57;;
42514;SDS011;28144;49.920;18.730;2023-04-08T11:25:24;9.37;;;6.10;;
42514;SDS011;28144;49.920;18.730;2023-04-08T11:27:50;6.97;;;4.53;;
42514;SDS011;28144;49.920;18.730;2023-04-08T11:30:16;7.27;;;4.13;;
42514;SDS011;28144;49.920;18.730;2023-04-08T11:32:42;7.00;;;4.37;;
42514;SDS011;28144;49.920;18.730;2023-04-08T11:35:08;8.82;;;6.68;;
42514;SDS011;28144;49.920;18.730;2023-04-08T11:37:38;8.38;;;5.57;;
42514;SDS011;28144;49.920;18.730;2023-04-08T11:40:05;5.33;;;3.60;;
42514;SDS011;28144;49.920;18.730;2023-04-08T11:42:35;7.40;;;5.27;;
42514;SDS011;28144;49.920;18.730;2023-04-08T11:45:00;6.53;;;3.13;;
42514;SDS011;28144;49.920;18.730;2023-04-08T11:47:32;5.83;;;4.27;;
42514;SDS011;28144;49.920;18.730;2023-04-08T11:49:58;12.37;;;7.87;;
42514;SDS011;28144;49.920;18.730;2023-04-08T11:52:41;10.90;;;7.03;;
42514;SDS011;28144;49.920;18.730;2023-04-08T11:55:11;7.63;;;4.67;;
42514;SDS011;28144;49.920;18.730;2023-04-08T11:57:37;12.30;;;7.27;;
42514;SDS011;28144;49.920;18.730;2023-04-08T12:00:04;9.77;;;6.97;;
42514;SDS011;28144;49.920;18.730;2023-04-08T12:02:31;10.47;;;6.93;;
42514;SDS011;28144;49.920;18.730;2023-04-08T12:04:57;9.23;;;6.50;;
42514;SDS011;28144;49.920;18.730;2023-04-08T12:07:23;9.17;;;6.43;;
42514;SDS011;28144;49.920;18.730;2023-04-08T12:09:48;7.83;;;4.20;;
42514;SDS011;28144;49.920;18.730;2023-04-08T12:12:14;7.53;;;4.20;;
42514;SDS011;28144;49.920;18.730;2023-04-08T12:14:40;11.37;;;7.03;;
42514;SDS011;28144;49.920;18.730;2023-04-08T12:17:06;9.80;;;7.40;;
42514;SDS011;28144;49.920;18.730;2023-04-08T12:19:31;11.47;;;6.93;;
42514;SDS011;28144;49.920;18.730;2023-04-08T12:21:57;10.73;;;5.87;;
42514;SDS011;28144;49.920;18.730;2023-04-08T12:24:23;9.57;;;6.10;;
42514;SDS011;28144;49.920;18.730;2023-04-08T12:26:49;9.93;;;7.17;;
42514;SDS011;28144;49.920;18.730;2023-04-08T12:29:14;14.23;;;9.27;;
42514;SDS011;28144;49.920;18.730;2023-04-08T12:31:40;11.77;;;6.77;;
42514;SDS011;28144;49.920;18.730;2023-04-08T12:34:06;5.43;;;3.73;;
42514;SDS011;28144;49.920;18.730;2023-04-08T12:36:32;9.65;;;4.97;;
42514;SDS011;28144;49.920;18.730;2023-04-08T12:38:58;9.00;;;5.20;;
42514;SDS011;28144;49.920;18.730;2023-04-08T12:41:24;12.00;;;7.80;;
42514;SDS011;28144;49.920;18.730;2023-04-08T12:43:50;13.23;;;8.53;;
42514;SDS011;28144;49.920;18.730;2023-04-08T12:46:16;12.67;;;8.17;;
42514;SDS011;28144;49.920;18.730;2023-04-08T12:48:41;16.67;;;8.93;;
42514;SDS011;28144;49.920;18.730;2023-04-08T12:51:09;15.23;;;9.90;;
42514;SDS011;28144;49.920;18.730;2023-04-08T12:53:36;12.05;;;8.60;;
42514;SDS011;28144;49.920;18.730;2023-04-08T12:56:02;13.13;;;7.65;;
42514;SDS011;28144;49.920;18.730;2023-04-08T12:58:28;17.17;;;10.30;;
42514;SDS011;28144;49.920;18.730;2023-04-08T13:00:54;6.57;;;4.77;;
42514;SDS011;28144;49.920;18.730;2023-04-08T13:03:19;7.77;;;4.57;;
42514;SDS011;28144;49.920;18.730;2023-04-08T13:05:46;15.88;;;9.32;;
42514;SDS011;28144;49.920;18.730;2023-04-08T13:08:11;12.57;;;8.73;;
42514;SDS011;28144;49.920;18.730;2023-04-08T13:10:37;12.98;;;8.70;;
42514;SDS011;28144;49.920;18.730;2023-04-08T13:13:03;13.60;;;9.30;;
42514;SDS011;28144;49.920;18.730;2023-04-08T13:15:31;15.60;;;10.23;;
42514;SDS011;28144;49.920;18.730;2023-04-08T13:17:56;11.43;;;7.70;;
42514;SDS011;28144;49.920;18.730;2023-04-08T13:20:22;14.30;;;8.83;;
42514;SDS011;28144;49.920;18.730;2023-04-08T13:22:51;14.10;;;9.47;;
42514;SDS011;28144;49.920;18.730;2023-04-08T13:25:17;16.97;;;9.63;;
42514;SDS011;28144;49.920;18.730;2023-04-08T13:27:42;23.67;;;12.00;;
42514;SDS011;28144;49.920;18.730;2023-04-08T13:30:09;52.10;;;16.20;;
42514;SDS011;28144;49.920;18.730;2023-04-08T13:32:35;31.70;;;15.63;;
42514;SDS011;28144;49.920;18.730;2023-04-08T13:35:01;16.43;;;7.87;;
42514;SDS011;28144;49.920;18.730;2023-04-08T13:37:26;14.63;;;8.93;;
42514;SDS011;28144;49.920;18.730;2023-04-08T13:39:53;12.45;;;7.50;;
42514;SDS011;28144;49.920;18.730;2023-04-08T13:42:18;14.80;;;9.10;;
42514;SDS011;28144;49.920;18.730;2023-04-08T13:48:25;12.13;;;7.33;;
42514;SDS011;28144;49.920;18.730;2023-04-08T13:50:51;11.13;;;7.60;;
42514;SDS011;28144;49.920;18.730;2023-04-08T13:53:16;15.27;;;9.37;;
42514;SDS011;28144;49.920;18.730;2023-04-08T13:55:42;15.87;;;9.47;;
42514;SDS011;28144;49.920;18.730;2023-04-08T13:58:08;16.90;;;10.57;;
42514;SDS011;28144;49.920;18.730;2023-04-08T14:00:34;15.63;;;8.77;;
42514;SDS011;28144;49.920;18.730;2023-04-08T14:03:00;14.27;;;7.20;;
42514;SDS011;28144;49.920;18.730;2023-04-08T14:05:26;18.83;;;10.52;;
42514;SDS011;28144;49.920;18.730;2023-04-08T14:07:52;14.73;;;7.90;;
42514;SDS011;28144;49.920;18.730;2023-04-08T14:10:18;14.80;;;8.60;;
42514;SDS011;28144;49.920;18.730;2023-04-08T14:12:44;18.13;;;9.80;;
42514;SDS011;28144;49.920;18.730;2023-04-08T14:15:11;21.20;;;10.87;;
42514;SDS011;28144;49.920;18.730;2023-04-08T14:17:36;15.00;;;7.60;;
42514;SDS011;28144;49.920;18.730;2023-04-08T14:20:02;14.35;;;7.07;;
42514;SDS011;28144;49.920;18.730;2023-04-08T14:22:30;21.20;;;12.37;;
42514;SDS011;28144;49.920;18.730;2023-04-08T14:24:56;17.50;;;10.63;;
42514;SDS011;28144;49.920;18.730;2023-04-08T14:27:22;19.57;;;11.57;;
42514;SDS011;28144;49.920;18.730;2023-04-08T14:29:48;16.30;;;7.80;;
42514;SDS011;28144;49.920;18.730;2023-04-08T14:32:14;16.23;;;9.30;;
42514;SDS011;28144;49.920;18.730;2023-04-08T14:34:40;16.80;;;11.13;;
42514;SDS011;28144;49.920;18.730;2023-04-08T14:37:06;21.07;;;12.07;;
42514;SDS011;28144;49.920;18.730;2023-04-08T14:39:32;15.65;;;9.85;;
42514;SDS011;28144;49.920;18.730;2023-04-08T14:41:58;21.87;;;12.40;;
42514;SDS011;28144;49.920;18.730;2023-04-08T14:44:23;20.37;;;11.73;;
42514;SDS011;28144;49.920;18.730;2023-04-08T14:46:49;19.37;;;11.37;;
42514;SDS011;28144;49.920;18.730;2023-04-08T14:49:15;24.05;;;12.63;;
42514;SDS011;28144;49.920;18.730;2023-04-08T14:51:41;22.83;;;8.87;;
42514;SDS011;28144;49.920;18.730;2023-04-08T14:54:07;23.03;;;12.27;;
42514;SDS011;28144;49.920;18.730;2023-04-08T14:56:32;32.70;;;17.77;;